createdAt,value
2018-02-16T00:01:08.251Z,10.07
2018-02-16T00:03:36.507Z,9.73
2018-02-16T00:06:04.776Z,9.50
2018-02-16T00:08:33.040Z,10.13
2018-02-16T00:11:01.343Z,10.50
2018-02-16T00:13:29.627Z,9.87
2018-02-16T00:15:57.887Z,9.07
2018-02-16T00:18:26.948Z,8.30
2018-02-16T00:20:55.210Z,10.27
2018-02-16T00:23:23.487Z,11.00
2018-02-16T00:25:51.750Z,8.53
2018-02-16T00:28:20.026Z,10.50
2018-02-16T00:30:48.302Z,7.97
2018-02-16T00:33:17.313Z,8.53
2018-02-16T00:35:45.654Z,8.47
2018-02-16T00:38:13.941Z,7.77
2018-02-16T00:40:42.267Z,8.60
2018-02-16T00:43:11.480Z,7.57
2018-02-16T00:45:39.762Z,8.07
2018-02-16T00:48:08.040Z,8.83
2018-02-16T00:50:36.327Z,8.23
2018-02-16T00:53:04.595Z,7.90
2018-02-16T00:55:33.634Z,8.37
2018-02-16T00:58:01.939Z,7.53
2018-02-16T01:00:31.011Z,6.93
2018-02-16T01:02:59.367Z,7.13
2018-02-16T01:05:27.620Z,7.70
2018-02-16T01:07:56.663Z,6.63
2018-02-16T01:10:24.936Z,7.80
2018-02-16T01:12:53.212Z,8.17
2018-02-16T01:15:22.235Z,8.40
2018-02-16T01:17:50.515Z,7.13
2018-02-16T01:20:19.522Z,8.50
2018-02-16T01:22:48.569Z,8.23
2018-02-16T01:25:16.833Z,8.20
2018-02-16T01:27:45.206Z,5.83
2018-02-16T01:30:14.256Z,6.20
2018-02-16T01:32:42.694Z,8.03
2018-02-16T01:35:11.153Z,7.00
2018-02-16T01:37:39.415Z,5.63
2018-02-16T01:40:07.677Z,6.33
2018-02-16T01:42:35.990Z,6.57
2018-02-16T01:45:04.368Z,5.67
2018-02-16T01:47:32.633Z,4.97
2018-02-16T01:50:06.636Z,5.30
2018-02-16T01:52:34.909Z,5.07
2018-02-16T01:55:03.168Z,4.93
2018-02-16T01:57:31.490Z,4.83
2018-02-16T01:59:59.762Z,4.93
2018-02-16T02:02:28.296Z,5.43
2018-02-16T02:04:56.551Z,4.03
2018-02-16T02:07:24.828Z,3.90
2018-02-16T02:09:53.092Z,4.23
2018-02-16T02:12:22.352Z,3.67
2018-02-16T02:14:50.609Z,4.13
2018-02-16T02:17:18.868Z,3.67
2018-02-16T02:19:47.136Z,3.70
2018-02-16T02:22:15.405Z,4.47
2018-02-16T02:24:43.758Z,3.20
2018-02-16T02:27:12.128Z,4.77
2018-02-16T02:29:41.233Z,5.40
2018-02-16T02:32:10.261Z,3.40
2018-02-16T02:34:38.563Z,2.87
2018-02-16T02:37:06.851Z,2.80
2018-02-16T02:39:35.122Z,2.40
2018-02-16T02:42:04.147Z,3.80
2018-02-16T02:44:32.513Z,2.30
2018-02-16T02:47:01.527Z,2.47
2018-02-16T02:49:30.944Z,1.87
2018-02-16T02:51:59.289Z,2.33
2018-02-16T02:54:27.561Z,2.70
2018-02-16T02:56:55.816Z,2.93
2018-02-16T02:59:24.106Z,2.00
2018-02-16T03:01:53.125Z,1.23
2018-02-16T03:04:21.383Z,2.07
2018-02-16T03:06:50.395Z,1.20
2018-02-16T03:09:19.419Z,3.47
2018-02-16T03:11:47.686Z,0.87
2018-02-16T03:14:16.748Z,1.83
2018-02-16T03:16:45.061Z,3.63
2018-02-16T03:19:13.415Z,1.03
2018-02-16T03:21:41.743Z,3.20
2018-02-16T03:24:11.213Z,3.53
2018-02-16T03:26:39.476Z,0.80
2018-02-16T03:29:08.503Z,1.13
2018-02-16T03:31:36.769Z,1.47
2018-02-16T03:34:05.812Z,1.40
2018-02-16T03:36:34.053Z,2.47
2018-02-16T03:39:02.296Z,1.17
2018-02-16T03:41:30.583Z,4.23
2018-02-16T03:43:58.855Z,2.90
2018-02-16T03:46:27.119Z,2.83
2018-02-16T03:48:56.126Z,1.33
2018-02-16T03:51:25.161Z,1.17
2018-02-16T03:53:53.413Z,2.60
2018-02-16T03:56:21.673Z,2.27
2018-02-16T03:58:49.917Z,1.70
2018-02-16T04:01:18.171Z,1.13
2018-02-16T04:03:46.457Z,1.00
2018-02-16T04:06:14.746Z,1.10
2018-02-16T04:08:43.052Z,2.50
2018-02-16T04:11:12.152Z,2.27
2018-02-16T04:13:40.431Z,1.80
2018-02-16T04:16:08.703Z,2.10
2018-02-16T04:18:36.953Z,0.97
2018-02-16T04:21:05.210Z,2.67
2018-02-16T04:23:35.058Z,2.77
2018-02-16T04:26:03.326Z,2.77
2018-02-16T04:28:32.324Z,1.77
2018-02-16T04:31:00.615Z,1.33
2018-02-16T04:33:29.657Z,4.00
2018-02-16T04:35:57.930Z,3.43
2018-02-16T04:38:26.942Z,1.40
2018-02-16T04:40:56.348Z,2.93
2018-02-16T04:43:25.354Z,3.50
2018-02-16T04:45:54.388Z,1.87
2018-02-16T04:48:22.626Z,2.20
2018-02-16T04:50:50.887Z,1.37
2018-02-16T04:53:19.160Z,2.37
2018-02-16T04:55:47.418Z,3.33
2018-02-16T04:58:15.726Z,2.97
2018-02-16T05:00:44.052Z,3.70
2018-02-16T05:03:12.326Z,2.60
2018-02-16T05:05:40.634Z,2.30
2018-02-16T05:08:08.883Z,2.97
2018-02-16T05:10:37.139Z,2.53
2018-02-16T05:13:06.179Z,5.10
2018-02-16T05:15:34.423Z,2.33
2018-02-16T05:18:02.772Z,2.17
2018-02-16T05:20:31.142Z,4.17
2018-02-16T05:23:00.381Z,4.43
2018-02-16T05:25:28.900Z,4.37
2018-02-16T05:27:57.459Z,4.00
2018-02-16T05:30:25.815Z,7.87
2018-02-16T05:32:54.950Z,5.23
2018-02-16T05:35:23.198Z,3.03
2018-02-16T05:37:51.594Z,6.27
2018-02-16T05:40:20.082Z,2.40
2018-02-16T05:42:48.612Z,1.83
2018-02-16T05:45:17.669Z,3.33
2018-02-16T05:47:46.244Z,4.93
2018-02-16T05:50:14.641Z,4.13
2018-02-16T05:52:43.787Z,6.17
2018-02-16T05:55:12.072Z,3.17
2018-02-16T05:57:40.874Z,2.23
2018-02-16T06:00:09.978Z,2.30
2018-02-16T06:02:38.301Z,3.07
2018-02-16T06:05:07.371Z,3.40
2018-02-16T06:07:35.685Z,4.10
2018-02-16T06:10:03.941Z,4.27
2018-02-16T06:12:32.442Z,2.80
2018-02-16T06:15:00.755Z,4.90
2018-02-16T06:17:29.074Z,4.63
2018-02-16T06:19:57.643Z,3.90
2018-02-16T06:22:26.679Z,5.87
2018-02-16T06:24:55.187Z,5.27
2018-02-16T06:27:23.565Z,4.33
2018-02-16T06:29:51.866Z,5.30
2018-02-16T06:32:20.683Z,5.60
2018-02-16T06:34:49.142Z,6.63
2018-02-16T06:37:18.478Z,6.13
2018-02-16T06:39:46.752Z,5.43
2018-02-16T06:42:16.153Z,4.27
2018-02-16T06:44:45.254Z,2.97
2018-02-16T06:47:13.631Z,4.93
2018-02-16T06:49:41.929Z,4.40
2018-02-16T06:52:11.090Z,5.87
2018-02-16T06:54:39.570Z,6.37
2018-02-16T06:57:08.091Z,6.07
2018-02-16T06:59:36.614Z,2.97
2018-02-16T07:02:04.864Z,5.43
2018-02-16T07:04:33.184Z,4.63
2018-02-16T07:07:01.462Z,6.17
2018-02-16T07:09:29.715Z,4.43
2018-02-16T07:11:57.983Z,5.50
2018-02-16T07:14:26.247Z,5.13
2018-02-16T07:16:54.503Z,5.83
2018-02-16T07:19:22.783Z,3.33
2018-02-16T07:21:51.028Z,5.63
2018-02-16T07:24:20.099Z,3.60
2018-02-16T07:26:48.352Z,4.10
2018-02-16T07:29:16.647Z,3.57
2018-02-16T07:31:44.947Z,5.53
2018-02-16T07:36:47.574Z,22.77
2018-02-16T07:39:16.650Z,13.00
2018-02-16T07:41:44.938Z,10.97
2018-02-16T07:44:14.015Z,13.10
2018-02-16T07:46:42.292Z,10.47
2018-02-16T07:49:10.623Z,8.17
2018-02-16T07:51:38.904Z,8.13
2018-02-16T07:54:07.911Z,5.47
2018-02-16T07:56:37.003Z,10.07
2018-02-16T07:59:05.251Z,4.67
2018-02-16T08:01:33.525Z,5.47
2018-02-16T08:04:01.791Z,3.87
2018-02-16T08:06:30.134Z,4.60
2018-02-16T08:08:58.391Z,5.17
2018-02-16T08:11:26.684Z,5.77
2018-02-16T08:13:54.932Z,3.93
2018-02-16T08:16:23.206Z,7.23
2018-02-16T08:18:51.467Z,4.53
2018-02-16T08:21:19.742Z,7.93
2018-02-16T08:23:47.985Z,4.07
2018-02-16T08:26:16.305Z,5.20
2018-02-16T08:28:45.357Z,7.17
2018-02-16T08:31:13.639Z,6.83
2018-02-16T08:33:42.688Z,6.23
2018-02-16T08:36:11.739Z,7.10
2018-02-16T08:38:40.006Z,3.63
2018-02-16T08:41:09.044Z,6.23
2018-02-16T08:43:37.443Z,5.03
2018-02-16T08:46:06.012Z,3.97
2018-02-16T08:48:34.381Z,4.47
2018-02-16T08:51:02.823Z,7.77
2018-02-16T08:53:31.155Z,3.73
2018-02-16T08:56:00.181Z,5.17
2018-02-16T08:58:28.700Z,3.63
2018-02-16T09:00:56.989Z,2.97
2018-02-16T09:03:25.248Z,5.53
2018-02-16T09:05:53.624Z,8.40
2018-02-16T09:08:22.896Z,7.93
2018-02-16T09:10:51.420Z,8.07
2018-02-16T09:13:20.772Z,3.43
2018-02-16T09:15:49.322Z,2.97
2018-02-16T09:18:17.795Z,6.30
2018-02-16T09:20:47.140Z,5.30
2018-02-16T09:23:17.085Z,3.60
2018-02-16T09:25:47.303Z,4.23
2018-02-16T09:28:16.393Z,4.57
2018-02-16T09:30:44.931Z,4.77
2018-02-16T09:33:13.371Z,6.37
2018-02-16T09:35:42.985Z,3.27
2018-02-16T09:38:11.580Z,2.93
2018-02-16T09:40:40.683Z,3.63
2018-02-16T09:43:09.129Z,2.70
2018-02-16T09:45:38.338Z,3.27
2018-02-16T09:48:06.865Z,2.57
2018-02-16T09:50:35.542Z,3.80
2018-02-16T09:53:04.004Z,2.97
2018-02-16T09:55:32.345Z,4.93
2018-02-16T09:58:01.246Z,2.50
2018-02-16T10:00:30.805Z,3.23
2018-02-16T10:02:59.477Z,4.10
2018-02-16T10:05:29.313Z,6.10
2018-02-16T10:07:58.477Z,4.70
2018-02-16T10:10:27.246Z,2.87
2018-02-16T10:12:55.910Z,5.60
2018-02-16T10:15:24.970Z,1.80
2018-02-16T10:17:54.455Z,3.00
2018-02-16T10:20:23.280Z,1.90
2018-02-16T10:22:51.891Z,2.93
2018-02-16T10:25:20.175Z,3.80
2018-02-16T10:27:48.605Z,7.37
2018-02-16T10:30:17.638Z,5.27
2018-02-16T10:32:46.138Z,4.37
2018-02-16T10:35:14.449Z,4.20
2018-02-16T10:37:42.927Z,6.33
2018-02-16T10:40:13.521Z,3.97
2018-02-16T10:42:41.822Z,3.83
2018-02-16T10:45:10.958Z,5.20
2018-02-16T10:47:39.360Z,7.17
2018-02-16T10:50:07.812Z,2.97
2018-02-16T10:52:37.170Z,3.80
2018-02-16T10:55:05.525Z,6.53
2018-02-16T10:57:33.909Z,2.57
2018-02-16T11:00:03.859Z,7.07
2018-02-16T11:02:38.714Z,4.60
2018-02-16T11:05:12.775Z,5.57
2018-02-16T11:07:47.423Z,4.97
2018-02-16T11:10:15.800Z,5.90
2018-02-16T11:12:44.673Z,5.07
2018-02-16T11:15:13.200Z,2.90
2018-02-16T11:17:41.538Z,3.10
2018-02-16T11:20:10.653Z,7.87
2018-02-16T11:22:39.768Z,2.70
2018-02-16T11:25:09.024Z,7.83
2018-02-16T11:27:37.346Z,7.03
2018-02-16T11:30:06.560Z,7.87
2018-02-16T11:32:35.817Z,8.23
2018-02-16T11:35:04.271Z,5.83
2018-02-16T11:37:33.685Z,6.07
2018-02-16T11:40:03.885Z,6.97
2018-02-16T11:42:34.162Z,5.83
2018-02-16T11:45:03.259Z,3.27
2018-02-16T11:47:36.563Z,6.20
2018-02-16T11:50:05.217Z,4.47
2018-02-16T11:52:33.899Z,6.50
2018-02-16T11:55:02.322Z,5.67
2018-02-16T11:57:30.641Z,5.57
2018-02-16T11:59:59.728Z,6.27
2018-02-16T12:02:28.050Z,6.73
2018-02-16T12:04:57.392Z,5.77
2018-02-16T12:07:25.759Z,5.23
2018-02-16T12:09:54.289Z,7.57
2018-02-16T12:12:22.590Z,6.47
2018-02-16T12:14:50.927Z,5.97
2018-02-16T12:17:19.368Z,13.60
2018-02-16T12:19:47.945Z,5.00
2018-02-16T12:22:16.410Z,5.93
2018-02-16T12:24:45.607Z,10.90
2018-02-16T12:27:14.708Z,7.00
2018-02-16T12:29:43.707Z,9.53
2018-02-16T12:32:12.142Z,7.80
2018-02-16T12:34:40.497Z,5.93
2018-02-16T12:37:08.850Z,7.33
2018-02-16T12:39:37.335Z,5.83
2018-02-16T12:42:05.737Z,6.47
2018-02-16T12:44:34.277Z,6.30
2018-02-16T12:47:02.736Z,6.50
2018-02-16T12:49:34.389Z,9.47
2018-02-16T12:52:06.164Z,8.07
2018-02-16T12:54:34.955Z,7.03
2018-02-16T12:57:03.557Z,7.10
2018-02-16T12:59:32.934Z,6.53
2018-02-16T13:02:01.286Z,8.80
2018-02-16T13:04:30.426Z,9.10
2018-02-16T13:06:58.948Z,6.17
2018-02-16T13:09:27.367Z,5.87
2018-02-16T13:11:55.795Z,10.30
2018-02-16T13:14:24.096Z,6.87
2018-02-16T13:16:53.222Z,9.27
2018-02-16T13:19:21.524Z,5.57
2018-02-16T13:21:49.896Z,7.13
2018-02-16T13:24:18.214Z,6.67
2018-02-16T13:26:46.495Z,4.03
2018-02-16T13:29:14.792Z,4.90
2018-02-16T13:31:43.165Z,6.80
2018-02-16T13:34:11.465Z,6.17
2018-02-16T13:36:40.030Z,9.50
2018-02-16T13:39:09.126Z,6.27
2018-02-16T13:41:38.272Z,3.83
2018-02-16T13:44:06.596Z,5.67
2018-02-16T13:46:34.928Z,8.97
2018-02-16T13:49:03.963Z,7.00
2018-02-16T13:51:32.256Z,5.73
2018-02-16T13:54:00.649Z,5.87
2018-02-16T13:56:29.300Z,6.37
2018-02-16T13:58:57.572Z,6.47
2018-02-16T14:01:27.088Z,5.63
2018-02-16T14:03:56.541Z,10.53
2018-02-16T14:06:26.181Z,7.10
2018-02-16T14:08:54.748Z,7.27
2018-02-16T14:11:23.119Z,7.80
2018-02-16T14:13:51.404Z,5.27
2018-02-16T14:16:19.958Z,6.23
2018-02-16T14:18:48.434Z,7.60
2018-02-16T14:21:16.787Z,8.53
2018-02-16T14:23:45.213Z,7.50
2018-02-16T14:26:14.245Z,7.47
2018-02-16T14:28:42.658Z,5.70
2018-02-16T14:31:11.152Z,9.17
2018-02-16T14:33:39.546Z,4.30
2018-02-16T14:36:07.918Z,7.43
2018-02-16T14:38:36.242Z,4.87
2018-02-16T14:41:04.624Z,7.50
2018-02-16T14:43:33.202Z,6.13
2018-02-16T14:46:01.673Z,6.73
2018-02-16T14:48:30.466Z,9.20
2018-02-16T14:50:59.533Z,8.00
2018-02-16T14:53:27.864Z,4.47
2018-02-16T14:55:56.160Z,8.23
2018-02-16T14:58:26.255Z,10.43
2018-02-16T15:00:54.838Z,6.60
2018-02-16T15:03:23.463Z,7.63
2018-02-16T15:05:52.756Z,7.43
2018-02-16T15:08:21.111Z,4.43
2018-02-16T15:10:50.781Z,4.70
2018-02-16T15:13:19.101Z,8.20
2018-02-16T15:15:47.570Z,5.57
2018-02-16T15:18:16.036Z,5.30
2018-02-16T15:20:44.404Z,7.13
2018-02-16T15:23:12.708Z,4.97
2018-02-16T15:25:41.571Z,5.83
2018-02-16T15:28:09.892Z,3.87
2018-02-16T15:30:38.209Z,8.07
2018-02-16T15:33:06.714Z,9.40
2018-02-16T15:35:35.054Z,7.33
2018-02-16T15:38:03.379Z,7.33
2018-02-16T15:40:31.759Z,8.53
2018-02-16T15:43:00.074Z,5.97
2018-02-16T15:45:29.368Z,5.17
2018-02-16T15:47:58.458Z,5.67
2018-02-16T15:50:26.767Z,5.07
2018-02-16T15:52:55.304Z,6.10
2018-02-16T15:55:23.769Z,8.30
2018-02-16T15:57:52.545Z,7.80
2018-02-16T16:00:21.639Z,8.97
2018-02-16T16:02:51.114Z,7.30
2018-02-16T16:05:20.320Z,6.07
2018-02-16T16:07:49.885Z,6.13
2018-02-16T16:10:18.960Z,5.33
2018-02-16T16:12:47.726Z,5.83
2018-02-16T16:15:16.310Z,6.00
2018-02-16T16:17:45.900Z,7.03
2018-02-16T16:20:14.846Z,8.07
2018-02-16T16:22:44.215Z,7.40
2018-02-16T16:25:13.184Z,6.53
2018-02-16T16:27:42.932Z,9.90
2018-02-16T16:30:11.469Z,5.57
2018-02-16T16:32:40.053Z,4.93
2018-02-16T16:35:08.802Z,17.93
2018-02-16T16:37:38.293Z,10.30
2018-02-16T16:40:06.974Z,11.43
2018-02-16T16:42:35.792Z,11.40
2018-02-16T16:45:04.873Z,7.03
2018-02-16T16:47:33.649Z,4.40
2018-02-16T16:50:02.364Z,5.33
2018-02-16T16:52:31.469Z,7.47
2018-02-16T16:54:59.816Z,9.70
2018-02-16T16:57:28.203Z,11.63
2018-02-16T16:59:57.531Z,7.70
2018-02-16T17:02:27.112Z,6.33
2018-02-16T17:04:55.644Z,6.53
2018-02-16T17:07:24.800Z,5.93
2018-02-16T17:09:53.463Z,4.50
2018-02-16T17:12:23.211Z,6.00
2018-02-16T17:14:52.498Z,10.83
2018-02-16T17:17:21.871Z,4.30
2018-02-16T17:19:50.566Z,6.27
2018-02-16T17:22:19.927Z,5.40
2018-02-16T17:24:48.682Z,5.27
2018-02-16T17:27:17.555Z,9.30
2018-02-16T17:29:46.067Z,5.70
2018-02-16T17:32:14.391Z,11.63
2018-02-16T17:34:43.727Z,5.20
2018-02-16T17:37:12.272Z,6.90
2018-02-16T17:39:40.811Z,10.27
2018-02-16T17:42:10.674Z,8.60
2018-02-16T17:44:39.299Z,8.73
2018-02-16T17:47:08.146Z,11.67
2018-02-16T17:49:37.583Z,7.27
2018-02-16T17:52:06.071Z,8.13
2018-02-16T17:54:34.519Z,8.07
2018-02-16T17:57:03.351Z,5.53
2018-02-16T17:59:31.880Z,8.80
2018-02-16T18:02:00.401Z,5.93
2018-02-16T18:04:28.941Z,10.10
2018-02-16T18:06:57.397Z,4.27
2018-02-16T18:09:25.999Z,8.70
2018-02-16T18:11:54.898Z,9.90
2018-02-16T18:14:23.156Z,4.70
2018-02-16T18:16:51.676Z,6.97
2018-02-16T18:19:20.770Z,15.97
2018-02-16T18:21:49.686Z,10.77
2018-02-16T18:24:18.240Z,8.07
2018-02-16T18:26:46.524Z,9.90
2018-02-16T18:29:14.898Z,7.83
2018-02-16T18:31:43.160Z,7.73
2018-02-16T18:34:11.668Z,7.67
2018-02-16T18:36:40.759Z,8.80
2018-02-16T18:39:10.140Z,10.40
2018-02-16T18:41:39.403Z,8.73
2018-02-16T18:44:08.773Z,13.57
2018-02-16T18:46:37.094Z,9.60
2018-02-16T18:49:05.493Z,8.70
2018-02-16T18:51:34.588Z,8.13
2018-02-16T18:54:02.889Z,7.83
2018-02-16T18:56:31.216Z,8.10
2018-02-16T18:59:00.443Z,6.97
2018-02-16T19:01:28.716Z,8.50
2018-02-16T19:03:58.060Z,10.60
2018-02-16T19:06:26.519Z,7.73
2018-02-16T19:08:55.063Z,12.50
2018-02-16T19:11:23.409Z,27.10
2018-02-16T19:13:52.757Z,8.50
2018-02-16T19:16:21.036Z,6.57
2018-02-16T19:18:50.083Z,10.70
2018-02-16T19:21:18.374Z,10.80
2018-02-16T19:23:46.775Z,10.80
2018-02-16T19:26:15.051Z,9.57
2018-02-16T19:28:43.759Z,10.47
2018-02-16T19:31:12.230Z,8.07
2018-02-16T19:33:40.921Z,8.97
2018-02-16T19:36:10.254Z,6.57
2018-02-16T19:38:39.354Z,9.17
2018-02-16T19:41:07.644Z,9.97
2018-02-16T19:43:36.382Z,9.80
2018-02-16T19:46:06.596Z,9.50
2018-02-16T19:48:34.939Z,7.70
2018-02-16T19:51:03.719Z,9.03
2018-02-16T19:53:32.108Z,9.23
2018-02-16T19:56:01.234Z,9.20
2018-02-16T19:58:29.484Z,12.23
2018-02-16T20:00:57.745Z,13.50
2018-02-16T20:03:26.004Z,10.13
2018-02-16T20:05:54.294Z,11.43
2018-02-16T20:08:22.691Z,10.10
2018-02-16T20:10:50.955Z,8.27
2018-02-16T20:13:19.956Z,9.53
2018-02-16T20:15:49.000Z,9.77
2018-02-16T20:18:17.276Z,14.83
2018-02-16T20:20:46.004Z,9.70
2018-02-16T20:23:14.818Z,9.57
2018-02-16T20:25:43.177Z,7.33
2018-02-16T20:28:11.443Z,10.43
2018-02-16T20:30:40.625Z,10.50
2018-02-16T20:33:08.953Z,8.03
2018-02-16T20:35:38.036Z,11.17
2018-02-16T20:38:06.483Z,7.73
2018-02-16T20:40:34.785Z,8.97
2018-02-16T20:43:03.048Z,10.13
2018-02-16T20:45:31.591Z,6.67
2018-02-16T20:47:59.982Z,9.60
2018-02-16T20:50:28.332Z,11.03
2018-02-16T20:52:56.662Z,11.47
2018-02-16T20:55:24.986Z,12.87
2018-02-16T20:57:54.061Z,12.73
2018-02-16T21:00:22.401Z,12.43
2018-02-16T21:02:50.664Z,14.47
2018-02-16T21:05:19.684Z,8.13
2018-02-16T21:07:48.708Z,9.23
2018-02-16T21:10:16.988Z,9.23
2018-02-16T21:12:45.281Z,7.20
2018-02-16T21:15:13.658Z,8.00
2018-02-16T21:17:42.028Z,13.13
2018-02-16T21:20:10.334Z,7.83
2018-02-16T21:22:38.977Z,9.73
2018-02-16T21:25:07.328Z,11.77
2018-02-16T21:27:35.795Z,9.53
2018-02-16T21:30:05.641Z,10.50
2018-02-16T21:32:35.115Z,12.73
2018-02-16T21:35:04.299Z,8.93
2018-02-16T21:37:33.007Z,11.50
2018-02-16T21:40:01.745Z,13.13
2018-02-16T21:42:31.174Z,10.80
2018-02-16T21:45:00.722Z,12.97
2018-02-16T21:47:29.654Z,10.13
2018-02-16T21:49:58.590Z,16.10
2018-02-16T21:52:27.253Z,9.73
2018-02-16T21:54:55.944Z,13.93
2018-02-16T21:57:24.828Z,11.13
2018-02-16T21:59:53.445Z,11.17
2018-02-16T22:02:22.117Z,8.63
2018-02-16T22:04:51.109Z,10.50
2018-02-16T22:07:19.463Z,12.10
2018-02-16T22:09:47.869Z,12.50
2018-02-16T22:12:16.361Z,18.07
2018-02-16T22:14:45.720Z,14.17
2018-02-16T22:17:14.225Z,11.97
2018-02-16T22:19:42.523Z,12.53
2018-02-16T22:22:11.195Z,14.17
2018-02-16T22:24:39.482Z,11.63
2018-02-16T22:27:08.518Z,17.33
2018-02-16T22:29:36.810Z,8.60
2018-02-16T22:32:05.074Z,12.47
2018-02-16T22:34:33.366Z,9.03
2018-02-16T22:37:01.668Z,12.83
2018-02-16T22:39:29.963Z,15.20
2018-02-16T22:41:58.259Z,15.33
2018-02-16T22:44:26.547Z,10.57
2018-02-16T22:46:54.808Z,17.53
2018-02-16T22:49:23.964Z,11.87
2018-02-16T22:51:52.220Z,14.80
2018-02-16T22:54:20.502Z,14.50
2018-02-16T22:56:48.781Z,13.23
2018-02-16T22:59:17.824Z,13.23
2018-02-16T23:01:47.064Z,12.53
2018-02-16T23:04:15.420Z,11.40
2018-02-16T23:06:43.868Z,13.83
2018-02-16T23:09:13.039Z,18.03
2018-02-16T23:11:41.370Z,11.83
2018-02-16T23:14:10.477Z,16.00
2018-02-16T23:16:39.512Z,12.00
2018-02-16T23:19:08.233Z,11.90
2018-02-16T23:21:36.644Z,11.73
2018-02-16T23:24:04.924Z,13.90
2018-02-16T23:26:33.171Z,11.30
2018-02-16T23:29:02.229Z,13.93
2018-02-16T23:31:30.506Z,16.90
2018-02-16T23:33:58.817Z,12.80
2018-02-16T23:36:27.091Z,15.73
2018-02-16T23:38:55.372Z,11.70
2018-02-16T23:41:23.639Z,14.13
2018-02-16T23:43:52.611Z,15.33
2018-02-16T23:46:20.891Z,16.17
2018-02-16T23:48:49.147Z,16.80
2018-02-16T23:51:18.184Z,12.50
2018-02-16T23:53:46.502Z,15.70
2018-02-16T23:56:14.895Z,22.57
2018-02-16T23:58:43.241Z,15.63
